createdAt,value
2022-10-25T00:01:32.746Z,2.15
2022-10-25T00:04:02.468Z,2.35
2022-10-25T00:06:32.286Z,4.72
2022-10-25T00:09:01.965Z,1.88
2022-10-25T00:11:34.197Z,2.83
2022-10-25T00:14:07.583Z,4.45
2022-10-25T00:16:43.790Z,1.88
2022-10-25T00:19:14.250Z,5.07
2022-10-25T00:21:43.777Z,2.42
2022-10-25T00:24:14.049Z,1.77
2022-10-25T00:26:45.050Z,2.90
2022-10-25T00:29:14.525Z,1.98
2022-10-25T00:31:44.174Z,2.85
2022-10-25T00:34:13.762Z,1.83
2022-10-25T00:36:43.766Z,4.15
2022-10-25T00:39:13.238Z,2.13
2022-10-25T00:41:44.034Z,1.85
2022-10-25T00:44:52.608Z,2.83
2022-10-25T00:47:45.963Z,2.75
2022-10-25T00:50:27.821Z,2.60
2022-10-25T00:53:06.413Z,2.45
2022-10-25T00:55:37.143Z,1.92
2022-10-25T00:58:15.179Z,2.28
2022-10-25T01:00:46.284Z,4.03
2022-10-25T01:03:18.438Z,2.47
2022-10-25T01:05:49.980Z,2.20
2022-10-25T01:08:25.103Z,2.75
2022-10-25T01:10:54.566Z,4.35
2022-10-25T01:13:25.565Z,2.53
2022-10-25T01:16:10.651Z,1.98
2022-10-25T01:18:52.503Z,5.45
2022-10-25T01:21:47.381Z,2.05
2022-10-25T01:25:14.473Z,2.58
2022-10-25T01:28:10.619Z,2.80
2022-10-25T01:31:19.990Z,2.42
2022-10-25T01:33:59.343Z,2.03
2022-10-25T01:36:42.235Z,2.20
2022-10-25T01:39:20.060Z,2.55
2022-10-25T01:42:05.987Z,1.90
2022-10-25T01:44:48.393Z,3.63
2022-10-25T01:47:22.718Z,2.90
2022-10-25T01:49:59.491Z,2.22
2022-10-25T01:52:29.739Z,2.15
2022-10-25T01:54:59.327Z,4.38
2022-10-25T01:57:59.674Z,3.55
2022-10-25T02:00:32.569Z,6.05
2022-10-25T02:03:16.053Z,5.40
2022-10-25T02:08:38.703Z,2.35
2022-10-25T02:11:19.215Z,3.38
2022-10-25T02:14:07.243Z,3.63
2022-10-25T02:16:43.425Z,1.85
2022-10-25T02:19:19.365Z,4.38
2022-10-25T02:21:51.130Z,2.28
2022-10-25T02:24:26.481Z,2.17
2022-10-25T02:26:58.045Z,2.00
2022-10-25T02:29:32.116Z,2.60
2022-10-25T02:32:03.430Z,2.10
2022-10-25T02:34:35.475Z,5.28
2022-10-25T02:37:04.885Z,3.83
2022-10-25T02:39:36.215Z,5.32
2022-10-25T02:42:06.186Z,4.25
2022-10-25T02:44:35.561Z,3.78
2022-10-25T02:47:04.957Z,2.30
2022-10-25T02:49:35.706Z,1.73
2022-10-25T02:52:05.253Z,2.25
2022-10-25T02:54:34.623Z,3.08
2022-10-25T02:57:04.042Z,1.75
2022-10-25T02:59:33.671Z,5.45
2022-10-25T03:02:03.192Z,3.35
2022-10-25T03:04:32.630Z,1.58
2022-10-25T03:07:03.406Z,2.15
2022-10-25T03:09:32.937Z,2.25
2022-10-25T03:12:02.304Z,1.88
2022-10-25T03:14:31.695Z,2.92
2022-10-25T03:17:01.078Z,3.55
2022-10-25T03:19:30.702Z,1.38
2022-10-25T03:22:00.097Z,2.45
2022-10-25T03:24:30.911Z,1.95
2022-10-25T03:27:00.355Z,3.90
2022-10-25T03:29:29.761Z,1.92
2022-10-25T03:31:59.146Z,2.65
2022-10-25T03:34:28.877Z,4.55
2022-10-25T03:36:58.749Z,2.60
2022-10-25T03:39:28.145Z,2.75
2022-10-25T03:41:58.984Z,3.13
2022-10-25T03:44:28.434Z,2.35
2022-10-25T03:46:57.825Z,1.27
2022-10-25T03:49:27.279Z,2.05
2022-10-25T03:51:58.885Z,3.10
2022-10-25T03:54:30.667Z,1.63
2022-10-25T03:57:02.368Z,2.92
2022-10-25T03:59:31.808Z,1.63
2022-10-25T04:02:02.514Z,1.23
2022-10-25T04:04:31.979Z,1.83
2022-10-25T04:07:01.400Z,1.23
2022-10-25T04:09:30.846Z,1.92
2022-10-25T04:12:02.154Z,4.63
2022-10-25T04:14:31.551Z,2.35
2022-10-25T04:17:01.029Z,1.90
2022-10-25T04:19:30.528Z,2.50
2022-10-25T04:22:02.116Z,2.40
2022-10-25T04:24:31.817Z,2.45
2022-10-25T04:27:02.552Z,1.37
2022-10-25T04:29:31.913Z,2.22
2022-10-25T04:32:01.302Z,2.42
2022-10-25T04:34:30.741Z,2.10
2022-10-25T04:37:00.196Z,1.23
2022-10-25T04:39:29.601Z,3.28
2022-10-25T04:41:59.061Z,1.73
2022-10-25T04:44:29.863Z,2.60
2022-10-25T04:46:59.268Z,1.23
2022-10-25T04:49:28.673Z,3.38
2022-10-25T04:51:59.058Z,2.13
2022-10-25T04:54:28.513Z,2.33
2022-10-25T04:56:57.907Z,2.95
2022-10-25T04:59:27.290Z,3.30
2022-10-25T05:02:00.759Z,1.25
2022-10-25T05:04:30.193Z,1.95
2022-10-25T05:06:59.648Z,2.13
2022-10-25T05:09:29.053Z,2.00
2022-10-25T05:11:58.555Z,2.03
2022-10-25T05:14:27.945Z,3.33
2022-10-25T05:16:58.909Z,5.03
2022-10-25T05:19:28.345Z,2.45
2022-10-25T05:21:57.802Z,1.50
2022-10-25T05:24:27.829Z,2.33
2022-10-25T05:26:57.241Z,4.47
2022-10-25T05:29:26.619Z,1.63
2022-10-25T05:31:56.036Z,2.10
2022-10-25T05:34:27.317Z,2.05
2022-10-25T05:36:57.289Z,2.30
2022-10-25T05:39:26.841Z,2.25
2022-10-25T05:41:56.265Z,2.72
2022-10-25T05:44:25.766Z,4.90
2022-10-25T05:46:55.735Z,1.25
2022-10-25T05:49:26.533Z,2.25
2022-10-25T05:51:55.911Z,1.63
2022-10-25T05:54:25.350Z,1.30
2022-10-25T05:56:54.687Z,2.63
2022-10-25T05:59:24.073Z,3.05
2022-10-25T06:01:53.688Z,3.05
2022-10-25T06:04:23.139Z,3.20
2022-10-25T06:06:53.893Z,3.28
2022-10-25T06:09:23.359Z,1.35
2022-10-25T06:11:52.789Z,2.20
2022-10-25T06:14:22.273Z,2.60
2022-10-25T06:16:51.699Z,2.53
2022-10-25T06:19:21.273Z,3.05
2022-10-25T06:21:50.658Z,1.75
2022-10-25T06:24:21.501Z,1.65
2022-10-25T06:26:50.951Z,2.20
2022-10-25T06:29:20.462Z,1.73
2022-10-25T06:31:50.465Z,2.75
2022-10-25T06:34:20.530Z,2.53
2022-10-25T06:36:49.992Z,2.20
2022-10-25T06:39:20.748Z,1.00
2022-10-25T06:41:50.104Z,4.05
2022-10-25T06:44:19.466Z,3.75
2022-10-25T06:49:38.200Z,2.80
2022-10-25T06:52:07.644Z,2.58
2022-10-25T06:54:38.430Z,2.47
2022-10-25T06:57:07.926Z,3.70
2022-10-25T06:59:37.384Z,1.48
2022-10-25T07:02:07.103Z,3.45
2022-10-25T07:04:36.538Z,2.20
2022-10-25T07:07:05.906Z,3.45
2022-10-25T07:09:35.322Z,1.90
2022-10-25T07:12:11.536Z,2.55
2022-10-25T07:14:42.312Z,3.67
2022-10-25T07:17:11.733Z,2.42
2022-10-25T07:19:41.086Z,2.60
2022-10-25T07:22:10.476Z,1.30
2022-10-25T07:24:39.924Z,1.88
2022-10-25T07:27:10.673Z,1.77
2022-10-25T07:29:40.109Z,1.67
2022-10-25T07:32:09.822Z,3.47
2022-10-25T07:34:39.217Z,2.13
2022-10-25T07:37:08.613Z,1.75
2022-10-25T07:39:38.013Z,1.58
2022-10-25T07:42:07.472Z,1.95
2022-10-25T07:44:38.249Z,2.30
2022-10-25T07:47:07.786Z,3.47
2022-10-25T07:49:38.799Z,4.82
2022-10-25T07:52:08.165Z,3.63
2022-10-25T07:54:37.542Z,3.80
2022-10-25T07:57:07.444Z,10.73
2022-10-25T07:59:38.222Z,3.17
2022-10-25T08:02:09.854Z,17.73
2022-10-25T08:04:39.337Z,59.83
2022-10-25T08:07:08.815Z,51.55
2022-10-25T08:09:38.899Z,35.17
2022-10-25T08:12:08.924Z,4.60
2022-10-25T08:14:41.670Z,43.72
2022-10-25T08:17:12.691Z,65.78
2022-10-25T08:19:42.045Z,19.02
2022-10-25T08:22:11.660Z,31.67
2022-10-25T08:24:41.066Z,21.77
2022-10-25T08:27:10.482Z,28.30
2022-10-25T08:29:41.219Z,3.85
2022-10-25T08:32:10.682Z,10.93
2022-10-25T08:34:40.137Z,64.00
2022-10-25T08:37:13.070Z,3.15
2022-10-25T08:39:42.460Z,2.70
2022-10-25T08:42:24.549Z,2.67
2022-10-25T08:45:02.911Z,2.95
2022-10-25T08:47:39.668Z,1.98
2022-10-25T08:50:19.711Z,3.53
2022-10-25T08:52:54.962Z,3.10
2022-10-25T08:55:34.020Z,2.08
2022-10-25T08:58:08.305Z,1.73
2022-10-25T09:00:44.310Z,5.50
2022-10-25T09:03:18.027Z,2.85
2022-10-25T09:06:05.351Z,2.05
2022-10-25T09:08:57.792Z,2.08
2022-10-25T09:11:48.782Z,2.67
2022-10-25T09:14:32.347Z,3.45
2022-10-25T09:17:18.911Z,2.53
2022-10-25T09:20:06.478Z,7.03
2022-10-25T09:22:50.179Z,3.15
2022-10-25T09:25:26.850Z,9.23
2022-10-25T09:28:03.596Z,3.08
2022-10-25T09:30:38.544Z,2.83
2022-10-25T09:33:13.835Z,6.45
2022-10-25T09:35:48.723Z,2.65
2022-10-25T09:38:26.230Z,2.60
2022-10-25T09:41:03.170Z,4.47
2022-10-25T09:43:41.561Z,2.78
2022-10-25T09:46:17.686Z,2.45
2022-10-25T09:48:59.326Z,3.85
2022-10-25T09:51:38.965Z,3.22
2022-10-25T09:54:21.810Z,3.78
2022-10-25T09:56:51.436Z,10.60
2022-10-25T09:59:20.821Z,2.20
2022-10-25T10:01:50.565Z,2.70
2022-10-25T10:04:34.074Z,3.35
2022-10-25T10:07:14.665Z,2.20
2022-10-25T10:09:46.308Z,3.75
2022-10-25T10:12:25.247Z,5.78
2022-10-25T10:15:02.545Z,5.03
2022-10-25T10:17:32.682Z,3.90
2022-10-25T10:20:15.209Z,3.92
2022-10-25T10:22:52.445Z,3.72
2022-10-25T10:25:27.429Z,3.22
2022-10-25T10:27:59.140Z,1.63
2022-10-25T10:30:31.675Z,3.00
2022-10-25T10:33:03.087Z,1.73
2022-10-25T10:35:37.459Z,1.92
2022-10-25T10:38:23.216Z,2.28
2022-10-25T10:40:56.009Z,8.48
2022-10-25T10:46:06.354Z,2.97
2022-10-25T10:48:43.312Z,5.25
2022-10-25T10:54:22.774Z,1.38
2022-10-25T10:57:01.971Z,3.50
2022-10-25T10:59:40.145Z,5.20
2022-10-25T11:02:27.426Z,1.38
2022-10-25T11:04:57.961Z,3.13
2022-10-25T11:07:36.456Z,2.03
2022-10-25T11:10:32.202Z,3.90
2022-10-25T11:13:17.373Z,3.88
2022-10-25T11:16:32.969Z,2.40
2022-10-25T11:19:27.336Z,7.50
2022-10-25T11:22:33.123Z,3.67
2022-10-25T11:25:27.801Z,2.63
2022-10-25T11:28:32.342Z,3.58
2022-10-25T11:31:15.716Z,3.25
2022-10-25T11:34:05.472Z,1.20
2022-10-25T11:36:53.162Z,2.17
2022-10-25T11:39:50.477Z,1.15
2022-10-25T11:42:53.613Z,4.68
2022-10-25T11:45:42.025Z,2.60
2022-10-25T11:48:48.039Z,3.13
2022-10-25T11:51:33.300Z,2.20
2022-10-25T11:54:22.293Z,1.42
2022-10-25T11:57:10.846Z,1.10
2022-10-25T12:00:00.786Z,4.00
2022-10-25T12:03:05.330Z,2.20
2022-10-25T12:05:45.428Z,1.17
2022-10-25T12:08:38.966Z,1.42
2022-10-25T12:11:18.009Z,1.88
2022-10-25T12:13:55.872Z,2.33
2022-10-25T12:16:26.598Z,1.52
2022-10-25T12:19:09.002Z,1.45
2022-10-25T12:21:47.588Z,4.13
2022-10-25T12:24:23.299Z,1.40
2022-10-25T12:26:55.859Z,5.10
2022-10-25T12:29:35.980Z,2.92
2022-10-25T12:32:15.709Z,2.33
2022-10-25T12:34:50.207Z,1.88
2022-10-25T12:37:31.165Z,1.55
2022-10-25T12:40:00.659Z,1.80
2022-10-25T12:42:38.347Z,4.63
2022-10-25T12:45:43.873Z,2.83
2022-10-25T12:48:41.129Z,1.67
2022-10-25T12:51:32.885Z,1.50
2022-10-25T12:54:59.880Z,1.35
2022-10-25T12:57:47.623Z,3.03
2022-10-25T13:00:21.826Z,1.45
2022-10-25T13:03:52.266Z,1.13
2022-10-25T13:06:35.269Z,5.22
2022-10-25T13:09:10.867Z,2.55
2022-10-25T13:11:44.934Z,2.10
2022-10-25T13:14:26.413Z,1.90
2022-10-25T13:17:59.978Z,3.33
2022-10-25T13:20:51.495Z,3.13
2022-10-25T13:24:02.344Z,1.92
2022-10-25T13:27:21.952Z,2.13
2022-10-25T13:30:32.113Z,1.98
2022-10-25T13:33:33.372Z,2.95
2022-10-25T13:36:05.929Z,2.90
2022-10-25T13:38:39.888Z,1.60
2022-10-25T13:41:16.506Z,2.30
2022-10-25T13:44:05.010Z,2.95
2022-10-25T13:46:41.348Z,6.80
2022-10-25T13:49:35.646Z,4.65
2022-10-25T13:52:09.464Z,4.40
2022-10-25T13:54:49.512Z,1.42
2022-10-25T13:57:53.357Z,1.85
2022-10-25T14:00:39.623Z,3.50
2022-10-25T14:03:47.368Z,2.20
2022-10-25T14:06:30.967Z,3.45
2022-10-25T14:09:25.286Z,3.90
2022-10-25T14:12:11.985Z,1.23
2022-10-25T14:17:32.380Z,1.52
2022-10-25T15:03:44.755Z,3.38
2022-10-25T15:08:51.487Z,4.30
2022-10-25T15:13:54.447Z,1.58
2022-10-25T15:16:36.140Z,3.10
2022-10-25T15:19:18.549Z,1.65
2022-10-25T15:21:51.714Z,2.47
2022-10-25T15:26:59.476Z,3.58
2022-10-25T15:32:21.201Z,4.03
2022-10-25T15:34:53.459Z,2.60
2022-10-25T15:37:25.483Z,3.05
2022-10-25T15:39:57.988Z,2.05
2022-10-25T17:20:49.948Z,2.00
2022-10-25T17:23:19.750Z,2.97
2022-10-25T17:58:45.769Z,15.10
2022-10-25T18:01:20.895Z,13.10
2022-10-25T18:06:23.616Z,9.18
2022-10-25T18:08:54.903Z,8.32
2022-10-25T18:11:28.125Z,7.53
2022-10-25T18:16:31.944Z,11.15
2022-10-25T18:21:34.407Z,13.60
2022-10-25T18:26:36.311Z,14.60
2022-10-25T18:31:36.442Z,11.88
2022-10-25T18:34:06.525Z,12.30
2022-10-25T18:39:56.350Z,10.40
2022-10-25T18:44:56.773Z,11.20
2022-10-25T18:52:26.357Z,10.98
2022-10-25T18:54:55.870Z,10.65
2022-10-25T19:04:06.855Z,12.48
2022-10-25T19:06:36.679Z,12.85
2022-10-25T19:14:05.583Z,11.65
2022-10-25T19:26:36.848Z,13.82
2022-10-25T19:29:06.359Z,13.70
2022-10-25T19:31:35.928Z,12.38
2022-10-25T19:34:06.778Z,15.52
2022-10-25T19:36:36.653Z,13.32
2022-10-25T19:39:06.629Z,12.00
2022-10-25T20:35:13.698Z,7.78
2022-10-25T20:37:44.647Z,10.05
2022-10-25T20:40:14.371Z,10.38
2022-10-25T20:42:43.798Z,10.23
2022-10-25T20:45:13.626Z,8.20
2022-10-25T20:47:44.787Z,8.48
2022-10-25T20:50:14.478Z,11.43
2022-10-25T20:52:58.578Z,10.38
2022-10-25T20:55:35.581Z,9.52
2022-10-25T21:11:33.686Z,8.70
2022-10-25T21:14:04.777Z,10.48
2022-10-25T21:16:34.213Z,11.65
2022-10-25T21:19:04.509Z,7.20
2022-10-25T21:21:34.047Z,8.48
2022-10-25T21:24:05.845Z,9.27
2022-10-25T21:26:35.294Z,7.18
2022-10-25T21:29:08.133Z,7.72
2022-10-25T21:31:38.686Z,10.23
2022-10-25T21:34:08.105Z,8.90
2022-10-25T21:36:37.636Z,7.35
2022-10-25T21:39:07.097Z,14.90
2022-10-25T21:41:36.647Z,9.45
2022-10-25T21:46:41.867Z,7.93
2022-10-25T21:49:11.426Z,8.05
2022-10-25T21:51:40.830Z,6.97
2022-10-25T21:54:10.273Z,7.95
2022-10-25T21:56:39.806Z,8.60
2022-10-25T21:59:10.762Z,8.57
2022-10-25T22:01:40.429Z,8.88
2022-10-25T22:04:10.668Z,6.32
2022-10-25T22:06:40.252Z,11.10
2022-10-25T22:09:10.475Z,9.52
2022-10-25T22:11:40.896Z,6.70
2022-10-25T22:14:15.562Z,9.55
2022-10-25T22:16:45.800Z,7.45
2022-10-25T22:19:20.702Z,11.25
2022-10-25T22:21:52.895Z,8.15
2022-10-25T22:24:22.449Z,7.28
2022-10-25T22:26:52.314Z,9.90
2022-10-25T22:29:23.146Z,9.82
2022-10-25T22:31:52.628Z,7.38
2022-10-25T22:34:22.162Z,10.93
2022-10-25T22:36:51.587Z,6.05
2022-10-25T22:39:21.002Z,7.43
2022-10-25T22:41:52.830Z,6.47
2022-10-25T22:44:23.711Z,9.05
2022-10-25T22:46:53.829Z,7.07
2022-10-25T22:49:23.542Z,8.18
2022-10-25T22:51:52.965Z,8.20
2022-10-25T22:54:23.143Z,6.68
2022-10-25T22:56:52.588Z,7.90
2022-10-25T22:59:23.883Z,7.53
2022-10-25T23:01:54.844Z,7.55
2022-10-25T23:04:25.092Z,7.68
2022-10-25T23:06:54.783Z,7.45
2022-10-25T23:09:24.562Z,8.80
2022-10-25T23:11:54.069Z,9.75
2022-10-25T23:14:24.885Z,9.27
2022-10-25T23:16:54.742Z,10.63
2022-10-25T23:19:24.146Z,9.43
2022-10-25T23:21:53.634Z,9.40
2022-10-25T23:24:23.795Z,8.55
2022-10-25T23:26:53.722Z,7.47
2022-10-25T23:29:24.710Z,10.25
2022-10-25T23:31:54.257Z,8.93
2022-10-25T23:36:58.626Z,7.60
2022-10-25T23:39:28.396Z,12.07
2022-10-25T23:41:58.429Z,10.05
2022-10-25T23:44:29.282Z,9.77
2022-10-25T23:46:58.750Z,6.95
2022-10-25T23:49:28.199Z,8.68
2022-10-25T23:51:57.703Z,10.35
2022-10-25T23:54:27.126Z,10.45
2022-10-25T23:56:56.587Z,8.13
2022-10-25T23:59:26.128Z,7.20
